Time;durP1;ratioP1;P1;durP2;ratioP2;P2;SDS_P1;SDS_P2;PMS_P1;PMS_P2;Temp;Humidity;BMP_temperature;BMP_pressure;BME280_temperature;BME280_humidity;BME280_pressure;Samples;Min_cycle;Max_cycle;Signal;HPM_P1;HPM_P2
2022/10/04 00:01:48;;;;;;;2.47;2.15;;;;;;;;;;6217049;23;20075;-94
2022/10/04 00:04:17;;;;;;;1.92;1.73;;;;;;;;;;6216734;23;20024;-93
2022/10/04 00:06:45;;;;;;;3.28;2.08;;;;;;;;;;6217097;23;20017;-92
2022/10/04 00:09:13;;;;;;;1.98;1.77;;;;;;;;;;6216703;23;20528;-92
2022/10/04 00:11:44;;;;;;;3.72;2.70;;;;;;;;;;6216622;23;20082;-92
2022/10/04 00:14:15;;;;;;;2.25;2.05;;;;;;;;;;6216677;23;20470;-92
2022/10/04 00:16:44;;;;;;;3.22;2.30;;;;;;;;;;6217059;23;20016;-92
2022/10/04 00:19:36;;;;;;;2.70;1.98;;;;;;;;;;6216980;23;20021;-93
2022/10/04 00:22:15;;;;;;;2.55;1.60;;;;;;;;;;6216590;23;20521;-94
2022/10/04 00:24:56;;;;;;;2.65;2.25;;;;;;;;;;6216920;23;20075;-93
2022/10/04 00:27:24;;;;;;;2.40;2.00;;;;;;;;;;6215827;23;20020;-93
2022/10/04 00:30:09;;;;;;;1.75;1.42;;;;;;;;;;6216915;23;20025;-94
2022/10/04 00:32:53;;;;;;;2.85;2.25;;;;;;;;;;6215712;23;20075;-93
2022/10/04 00:35:37;;;;;;;5.40;1.90;;;;;;;;;;6216863;23;20401;-94
2022/10/04 00:38:08;;;;;;;4.53;1.38;;;;;;;;;;6215301;23;20070;-94
2022/10/04 00:40:36;;;;;;;2.03;1.27;;;;;;;;;;6216910;23;20020;-94
2022/10/04 00:43:04;;;;;;;1.33;1.08;;;;;;;;;;6216795;23;20074;-94
2022/10/04 00:45:36;;;;;;;3.63;1.92;;;;;;;;;;6216249;23;20020;-93
2022/10/04 00:48:20;;;;;;;2.17;1.90;;;;;;;;;;6216768;23;20025;-93
2022/10/04 00:50:51;;;;;;;2.25;1.95;;;;;;;;;;6216676;23;20025;-92
2022/10/04 00:53:21;;;;;;;1.83;1.58;;;;;;;;;;6216825;23;20024;-92
2022/10/04 00:55:50;;;;;;;3.42;1.70;;;;;;;;;;6216210;23;20028;-92
2022/10/04 00:58:18;;;;;;;2.90;1.75;;;;;;;;;;6216698;23;20024;-93
2022/10/04 01:00:48;;;;;;;2.25;2.13;;;;;;;;;;6216704;23;20029;-92
2022/10/04 01:03:17;;;;;;;1.58;1.48;;;;;;;;;;6216620;23;20087;-90
2022/10/04 01:05:46;;;;;;;1.73;1.10;;;;;;;;;;6216640;23;20104;-93
2022/10/04 01:08:15;;;;;;;2.08;1.83;;;;;;;;;;6216558;23;20021;-93
2022/10/04 01:10:46;;;;;;;2.25;1.63;;;;;;;;;;6216505;23;20021;-92
2022/10/04 01:13:14;;;;;;;2.08;1.70;;;;;;;;;;6216843;23;20028;-93
2022/10/04 01:15:42;;;;;;;2.78;1.73;;;;;;;;;;6216430;23;20103;-93
2022/10/04 01:18:10;;;;;;;3.25;1.23;;;;;;;;;;6216600;23;20023;-93
2022/10/04 01:20:38;;;;;;;2.22;2.03;;;;;;;;;;6216473;23;20020;-92
2022/10/04 01:23:08;;;;;;;2.42;2.10;;;;;;;;;;6216433;23;20020;-92
2022/10/04 01:25:48;;;;;;;2.05;1.92;;;;;;;;;;6216095;23;20020;-92
2022/10/04 01:28:15;;;;;;;1.92;1.77;;;;;;;;;;6216306;23;20067;-93
2022/10/04 01:30:42;;;;;;;1.73;1.50;;;;;;;;;;6216100;23;20120;-93
2022/10/04 01:33:08;;;;;;;1.50;1.17;;;;;;;;;;6216012;23;20079;-93
2022/10/04 01:35:35;;;;;;;4.82;2.17;;;;;;;;;;6216246;23;20024;-93
2022/10/04 01:38:02;;;;;;;1.52;1.13;;;;;;;;;;6216005;23;20095;-93
2022/10/04 01:40:31;;;;;;;2.60;2.33;;;;;;;;;;6216175;23;20025;-93
2022/10/04 01:43:01;;;;;;;2.15;1.85;;;;;;;;;;6215865;23;20214;-93
2022/10/04 01:45:29;;;;;;;2.35;2.15;;;;;;;;;;6215519;23;20025;-92
2022/10/04 01:47:59;;;;;;;3.65;2.40;;;;;;;;;;6216181;23;20021;-94
2022/10/04 01:50:29;;;;;;;2.40;2.20;;;;;;;;;;6216051;23;20067;-93
2022/10/04 01:53:00;;;;;;;1.85;1.63;;;;;;;;;;6215803;23;20104;-93
2022/10/04 01:55:29;;;;;;;1.83;1.52;;;;;;;;;;6216138;23;20562;-92
2022/10/04 01:57:59;;;;;;;2.72;2.53;;;;;;;;;;6215556;23;20024;-93
2022/10/04 02:00:26;;;;;;;1.83;1.40;;;;;;;;;;6215662;23;20398;-93
2022/10/04 02:02:54;;;;;;;2.25;2.13;;;;;;;;;;6216477;23;20047;-93
2022/10/04 02:05:27;;;;;;;3.47;1.73;;;;;;;;;;6215580;23;20025;-93
2022/10/04 02:07:54;;;;;;;2.20;2.00;;;;;;;;;;6215967;23;20043;-94
2022/10/04 02:10:22;;;;;;;1.92;1.80;;;;;;;;;;6215837;23;20402;-93
2022/10/04 02:12:49;;;;;;;3.85;2.08;;;;;;;;;;6215985;23;20024;-93
2022/10/04 02:15:19;;;;;;;1.90;1.48;;;;;;;;;;6215487;23;20020;-93
2022/10/04 02:17:46;;;;;;;1.83;1.30;;;;;;;;;;6215541;23;20525;-93
2022/10/04 02:20:15;;;;;;;1.70;1.52;;;;;;;;;;6216074;23;20087;-92
2022/10/04 02:22:43;;;;;;;2.70;2.15;;;;;;;;;;6216165;23;20029;-94
2022/10/04 02:25:10;;;;;;;2.63;2.42;;;;;;;;;;6219874;23;20025;-94
2022/10/04 02:27:37;;;;;;;4.57;2.17;;;;;;;;;;6216021;23;20052;-93
2022/10/04 02:30:04;;;;;;;2.88;1.50;;;;;;;;;;6215927;23;20090;-92
2022/10/04 02:35:18;;;;;;;2.25;1.58;;;;;;;;;;6216028;23;20036;-93
2022/10/04 02:37:46;;;;;;;4.15;1.88;;;;;;;;;;6215798;23;20017;-93
2022/10/04 02:40:13;;;;;;;2.35;2.08;;;;;;;;;;6215910;23;20029;-93
2022/10/04 02:42:42;;;;;;;2.58;2.00;;;;;;;;;;6215838;23;20028;-94
2022/10/04 02:45:12;;;;;;;3.78;1.67;;;;;;;;;;6216183;23;20026;-92
2022/10/04 02:47:44;;;;;;;3.25;2.50;;;;;;;;;;6215514;23;20051;-93
2022/10/04 02:50:19;;;;;;;2.47;1.38;;;;;;;;;;6215358;23;20536;-93
2022/10/04 02:52:49;;;;;;;2.50;1.98;;;;;;;;;;6215806;23;20455;-92
2022/10/04 02:55:19;;;;;;;1.80;1.40;;;;;;;;;;6215834;23;20027;-93
2022/10/04 02:57:46;;;;;;;2.13;1.33;;;;;;;;;;6215751;23;20523;-93
2022/10/04 03:00:17;;;;;;;2.03;1.38;;;;;;;;;;6216093;23;20079;-94
2022/10/04 03:03:08;;;;;;;2.15;2.00;;;;;;;;;;6215885;23;20025;-95
2022/10/04 03:05:36;;;;;;;2.22;1.50;;;;;;;;;;6227251;23;20024;-94
2022/10/04 03:08:04;;;;;;;1.80;1.63;;;;;;;;;;6240585;23;20021;-96
2022/10/04 03:10:30;;;;;;;1.63;1.25;;;;;;;;;;6222752;23;20020;-95
2022/10/04 03:12:57;;;;;;;2.47;2.28;;;;;;;;;;6216494;23;20024;-96
2022/10/04 03:15:24;;;;;;;2.08;1.70;;;;;;;;;;6216026;23;20025;-95
2022/10/04 03:17:50;;;;;;;2.58;2.38;;;;;;;;;;6215772;23;20659;-95
2022/10/04 03:20:20;;;;;;;1.63;1.25;;;;;;;;;;6215512;23;20394;-94
2022/10/04 03:22:48;;;;;;;1.25;0.98;;;;;;;;;;6215492;23;20020;-94
2022/10/04 03:25:18;;;;;;;1.38;1.20;;;;;;;;;;6215949;23;20028;-95
2022/10/04 03:27:46;;;;;;;2.70;2.30;;;;;;;;;;6215773;23;20020;-95
2022/10/04 03:30:13;;;;;;;2.22;1.27;;;;;;;;;;6215924;23;20025;-94
2022/10/04 03:32:40;;;;;;;2.58;1.73;;;;;;;;;;6215628;23;20028;-94
2022/10/04 03:35:08;;;;;;;1.35;1.25;;;;;;;;;;6215503;23;20028;-96
2022/10/04 03:37:37;;;;;;;1.40;1.10;;;;;;;;;;6216097;23;20378;-95
2022/10/04 03:40:05;;;;;;;2.22;1.45;;;;;;;;;;6215401;23;20025;-94
2022/10/04 03:42:33;;;;;;;1.70;1.52;;;;;;;;;;6215928;23;20075;-95
2022/10/04 03:45:00;;;;;;;4.22;2.03;;;;;;;;;;6216148;23;20072;-94
2022/10/04 03:47:29;;;;;;;2.50;2.20;;;;;;;;;;6215155;23;20386;-92
2022/10/04 03:49:57;;;;;;;3.17;1.40;;;;;;;;;;6215276;23;20438;-92
2022/10/04 03:52:25;;;;;;;3.28;1.50;;;;;;;;;;6215503;23;20098;-94
2022/10/04 03:54:55;;;;;;;2.22;2.03;;;;;;;;;;6215652;23;20409;-94
2022/10/04 03:57:22;;;;;;;5.00;2.60;;;;;;;;;;6215636;23;20028;-94
2022/10/04 03:59:49;;;;;;;2.17;1.95;;;;;;;;;;6216100;23;20100;-93
2022/10/04 04:02:19;;;;;;;2.00;1.58;;;;;;;;;;6217471;23;20075;-95
2022/10/04 04:04:49;;;;;;;1.42;1.02;;;;;;;;;;6217571;23;20025;-93
2022/10/04 04:07:19;;;;;;;4.07;1.73;;;;;;;;;;6217385;23;20028;-95
2022/10/04 04:09:49;;;;;;;2.60;1.92;;;;;;;;;;6217790;23;20117;-95
2022/10/04 04:12:20;;;;;;;2.50;1.88;;;;;;;;;;6217486;23;20028;-96
2022/10/04 04:14:48;;;;;;;2.63;2.17;;;;;;;;;;6221366;23;20128;-95
2022/10/04 04:17:33;;;;;;;1.83;1.70;;;;;;;;;;6217302;23;20016;-94
2022/10/04 04:20:01;;;;;;;2.45;1.33;;;;;;;;;;6216672;23;20024;-94
2022/10/04 04:22:30;;;;;;;3.45;1.83;;;;;;;;;;6217284;23;20059;-95
2022/10/04 04:24:58;;;;;;;2.65;2.30;;;;;;;;;;6217802;23;20021;-95
2022/10/04 04:27:25;;;;;;;1.67;1.58;;;;;;;;;;6216991;23;20417;-95
2022/10/04 04:29:52;;;;;;;4.70;2.22;;;;;;;;;;6217128;23;20706;-96
2022/10/04 04:32:22;;;;;;;2.17;1.70;;;;;;;;;;6216863;23;20067;-95
2022/10/04 04:34:52;;;;;;;2.60;2.08;;;;;;;;;;6217099;23;20024;-95
2022/10/04 04:37:19;;;;;;;2.30;1.80;;;;;;;;;;6216832;23;20025;-96
2022/10/04 04:39:50;;;;;;;1.65;1.45;;;;;;;;;;6216610;23;20394;-95
2022/10/04 04:42:18;;;;;;;2.17;1.98;;;;;;;;;;6216920;23;20024;-94
2022/10/04 04:44:50;;;;;;;2.90;0.93;;;;;;;;;;6216419;23;20104;-95
2022/10/04 04:47:25;;;;;;;2.33;2.10;;;;;;;;;;6216967;23;20017;-95
2022/10/04 04:49:53;;;;;;;3.42;2.38;;;;;;;;;;6217053;23;20024;-95
2022/10/04 04:52:21;;;;;;;5.38;1.90;;;;;;;;;;6217102;23;20121;-94
2022/10/04 04:54:48;;;;;;;2.53;2.30;;;;;;;;;;6216676;23;20025;-95
2022/10/04 04:57:16;;;;;;;2.85;1.98;;;;;;;;;;6216651;23;20407;-94
2022/10/04 04:59:44;;;;;;;2.55;1.55;;;;;;;;;;6216840;23;20094;-94
2022/10/04 05:02:25;;;;;;;1.67;1.25;;;;;;;;;;6216656;23;20024;-94
2022/10/04 05:05:06;;;;;;;3.45;1.13;;;;;;;;;;6216545;23;20531;-94
2022/10/04 05:07:34;;;;;;;5.65;2.10;;;;;;;;;;6215769;23;20025;-93
2022/10/04 05:10:01;;;;;;;3.22;2.17;;;;;;;;;;6215366;23;20021;-91
2022/10/04 05:12:27;;;;;;;2.75;2.03;;;;;;;;;;6213883;23;20358;-92
2022/10/04 05:14:54;;;;;;;2.10;1.33;;;;;;;;;;6215903;23;20025;-93
2022/10/04 05:17:24;;;;;;;5.35;2.05;;;;;;;;;;6216108;23;20083;-91
2022/10/04 05:19:51;;;;;;;3.55;2.55;;;;;;;;;;6211692;23;20075;-92
2022/10/04 05:22:20;;;;;;;2.28;2.08;;;;;;;;;;6215833;23;20075;-91
2022/10/04 05:24:48;;;;;;;3.20;2.58;;;;;;;;;;6215497;23;20025;-92
2022/10/04 05:27:16;;;;;;;4.88;3.38;;;;;;;;;;6215226;23;20079;-92
2022/10/04 05:29:49;;;;;;;7.07;3.33;;;;;;;;;;6215959;23;20028;-90
2022/10/04 05:32:22;;;;;;;3.05;1.85;;;;;;;;;;6215874;23;20024;-91
2022/10/04 05:34:49;;;;;;;4.63;2.83;;;;;;;;;;6215816;23;20075;-91
2022/10/04 05:37:27;;;;;;;5.63;2.10;;;;;;;;;;6215904;23;20096;-91
2022/10/04 05:39:59;;;;;;;4.22;2.97;;;;;;;;;;6215258;23;20086;-90
2022/10/04 05:42:34;;;;;;;4.55;1.92;;;;;;;;;;6215520;23;20025;-92
2022/10/04 05:45:00;;;;;;;3.55;3.05;;;;;;;;;;6215150;23;20485;-90
2022/10/04 05:47:28;;;;;;;2.95;2.05;;;;;;;;;;6215520;23;20103;-89
2022/10/04 05:49:56;;;;;;;2.72;2.50;;;;;;;;;;6215181;23;20024;-91
2022/10/04 05:52:29;;;;;;;2.17;1.58;;;;;;;;;;6215594;23;20079;-91
2022/10/04 05:55:10;;;;;;;2.60;2.40;;;;;;;;;;6214836;23;20027;-90
2022/10/04 05:57:42;;;;;;;3.67;2.95;;;;;;;;;;6190294;23;20378;-90
2022/10/04 06:00:12;;;;;;;5.47;3.72;;;;;;;;;;6215389;23;20466;-90
2022/10/04 06:02:59;;;;;;;4.65;4.25;;;;;;;;;;6215068;23;20024;-90
2022/10/04 06:05:28;;;;;;;6.15;4.60;;;;;;;;;;6214898;23;20024;-91
2022/10/04 06:07:58;;;;;;;4.00;3.53;;;;;;;;;;6215453;23;20551;-91
2022/10/04 06:10:31;;;;;;;8.48;4.50;;;;;;;;;;6214586;23;20683;-90
2022/10/04 06:13:03;;;;;;;14.30;8.00;;;;;;;;;;6215252;23;20087;-91
2022/10/04 06:15:51;;;;;;;12.85;5.63;;;;;;;;;;6214862;23;20082;-91
2022/10/04 06:18:45;;;;;;;14.43;5.80;;;;;;;;;;6215501;23;20020;-91
2022/10/04 06:21:19;;;;;;;5.28;4.78;;;;;;;;;;6215524;23;20055;-91
2022/10/04 06:23:49;;;;;;;5.13;4.38;;;;;;;;;;6215279;23;20028;-91
2022/10/04 06:26:19;;;;;;;5.88;4.22;;;;;;;;;;6214637;23;20024;-92
2022/10/04 06:28:49;;;;;;;6.47;3.63;;;;;;;;;;6215424;23;20021;-91
2022/10/04 06:31:27;;;;;;;3.72;2.13;;;;;;;;;;6215337;23;20021;-91
2022/10/04 06:34:12;;;;;;;1.83;1.67;;;;;;;;;;6214900;23;20021;-93
2022/10/04 06:36:49;;;;;;;2.65;2.42;;;;;;;;;;6214112;23;20071;-93
2022/10/04 06:39:23;;;;;;;2.45;2.15;;;;;;;;;;6214415;23;20071;-91
2022/10/04 06:42:14;;;;;;;5.88;2.05;;;;;;;;;;6214608;23;20078;-91
2022/10/04 06:44:50;;;;;;;3.33;3.03;;;;;;;;;;6214171;23;20079;-92
2022/10/04 06:47:23;;;;;;;2.47;2.28;;;;;;;;;;6214858;23;20028;-92
2022/10/04 06:49:54;;;;;;;2.67;1.73;;;;;;;;;;6215245;23;20017;-91
2022/10/04 06:52:34;;;;;;;4.05;2.25;;;;;;;;;;6213703;23;20024;-91
2022/10/04 06:55:18;;;;;;;3.20;1.75;;;;;;;;;;6214386;23;20020;-90
2022/10/04 06:57:53;;;;;;;3.70;3.38;;;;;;;;;;6210093;23;20063;-90
2022/10/04 07:00:21;;;;;;;3.35;1.77;;;;;;;;;;6213170;23;20327;-91
2022/10/04 07:02:50;;;;;;;2.53;2.33;;;;;;;;;;6214252;23;20020;-90
2022/10/04 07:05:29;;;;;;;2.33;2.00;;;;;;;;;;6215076;23;20025;-91
2022/10/04 07:08:05;;;;;;;2.25;2.05;;;;;;;;;;6214369;23;20025;-89
2022/10/04 07:10:34;;;;;;;2.25;1.88;;;;;;;;;;6216399;23;20028;-89
2022/10/04 07:13:16;;;;;;;3.65;2.15;;;;;;;;;;6237894;23;20032;-90
2022/10/04 07:15:46;;;;;;;5.40;2.17;;;;;;;;;;6215861;23;20533;-89
2022/10/04 07:18:13;;;;;;;;;;;;;;;;;;6215228;23;20025;-89
2022/10/04 07:20:40;;;;;;;1.30;1.20;;;;;;;;;;6213751;23;19916;-90
2022/10/04 07:23:08;;;;;;;2.97;2.25;;;;;;;;;;6213746;23;20074;-90
2022/10/04 07:25:36;;;;;;;1.83;1.73;;;;;;;;;;6214005;23;20454;-90
2022/10/04 07:30:52;;;;;;;9.85;3.03;;;;;;;;;;6214129;23;20031;-89
2022/10/04 07:33:21;;;;;;;1.70;1.42;;;;;;;;;;6214684;23;20024;-90
2022/10/04 07:35:50;;;;;;;1.95;1.85;;;;;;;;;;6215171;23;20028;-90
2022/10/04 07:38:20;;;;;;;2.42;2.22;;;;;;;;;;6216019;23;20025;-90
2022/10/04 07:40:52;;;;;;;2.47;2.28;;;;;;;;;;6215001;23;20032;-90
2022/10/04 07:43:23;;;;;;;3.22;1.58;;;;;;;;;;6215995;23;20086;-91
2022/10/04 07:46:00;;;;;;;1.50;1.40;;;;;;;;;;6215286;23;20028;-87
2022/10/04 07:48:27;;;;;;;2.13;1.92;;;;;;;;;;6216305;23;20078;-87
2022/10/04 07:50:59;;;;;;;2.25;1.60;;;;;;;;;;6215205;23;20087;-87
2022/10/04 07:53:27;;;;;;;3.60;1.30;;;;;;;;;;6215364;23;20024;-86
2022/10/04 07:55:56;;;;;;;3.03;2.65;;;;;;;;;;6215647;23;20025;-94
2022/10/04 07:58:28;;;;;;;2.03;1.08;;;;;;;;;;6214524;23;20017;-89
2022/10/04 08:00:58;;;;;;;2.28;1.92;;;;;;;;;;6216063;23;20078;-90
2022/10/04 08:03:39;;;;;;;2.22;2.03;;;;;;;;;;6216279;23;20025;-91
2022/10/04 08:06:10;;;;;;;2.63;1.38;;;;;;;;;;6215024;23;20677;-90
2022/10/04 08:08:45;;;;;;;4.45;2.60;;;;;;;;;;6216024;23;20048;-91
2022/10/04 08:11:16;;;;;;;2.30;1.67;;;;;;;;;;6216483;23;20028;-91
2022/10/04 08:13:50;;;;;;;2.35;2.03;;;;;;;;;;6216311;23;20108;-91
2022/10/04 08:16:26;;;;;;;4.32;1.85;;;;;;;;;;6215890;23;20025;-92
2022/10/04 08:19:00;;;;;;;2.78;2.22;;;;;;;;;;6215370;23;20024;-91
2022/10/04 08:21:31;;;;;;;2.17;1.92;;;;;;;;;;6216038;23;20071;-92
2022/10/04 08:24:05;;;;;;;3.42;1.63;;;;;;;;;;6216865;23;20025;-91
2022/10/04 08:26:40;;;;;;;2.03;1.88;;;;;;;;;;6216836;23;20075;-90
2022/10/04 08:32:05;;;;;;;1.75;1.65;;;;;;;;;;6216215;23;20477;-90
2022/10/04 08:34:41;;;;;;;1.63;1.45;;;;;;;;;;6216099;23;20021;-91
2022/10/04 08:37:10;;;;;;;1.88;1.58;;;;;;;;;;6216575;23;20347;-90
2022/10/04 08:39:47;;;;;;;1.52;1.42;;;;;;;;;;6216163;23;20060;-91
2022/10/04 08:42:44;;;;;;;3.38;1.58;;;;;;;;;;6216189;23;20028;-91
2022/10/04 08:45:25;;;;;;;3.75;1.63;;;;;;;;;;6215766;23;20028;-91
2022/10/04 08:48:07;;;;;;;3.92;2.10;;;;;;;;;;6211145;23;20525;-91
2022/10/04 08:50:48;;;;;;;2.15;1.95;;;;;;;;;;6215569;23;20485;-90
2022/10/04 08:53:32;;;;;;;1.80;1.65;;;;;;;;;;6215894;23;20454;-91
2022/10/04 08:56:11;;;;;;;1.02;1.00;;;;;;;;;;6216295;23;20074;-91
2022/10/04 08:59:01;;;;;;;0.90;0.80;;;;;;;;;;6215946;23;20334;-91
2022/10/04 09:01:43;;;;;;;2.35;1.55;;;;;;;;;;6167803;23;20462;-91
2022/10/04 09:04:27;;;;;;;1.65;1.35;;;;;;;;;;6190891;23;20082;-91
2022/10/04 09:07:01;;;;;;;4.25;1.60;;;;;;;;;;6215601;23;20465;-90
2022/10/04 09:09:51;;;;;;;1.65;1.55;;;;;;;;;;6215646;23;20024;-88
2022/10/04 09:12:26;;;;;;;3.20;2.92;;;;;;;;;;6215728;23;20374;-88
2022/10/04 09:15:02;;;;;;;2.35;1.80;;;;;;;;;;6215844;23;20024;-87
2022/10/04 09:17:29;;;;;;;;;;;;;;;;;;6216667;23;20401;-88
2022/10/04 09:20:00;;;;;;;4.10;2.35;;;;;;;;;;6215898;23;19920;-90
2022/10/04 09:22:45;;;;;;;2.22;2.13;;;;;;;;;;6215964;23;20032;-88
2022/10/04 09:25:31;;;;;;;2.30;2.00;;;;;;;;;;6215946;23;20099;-91
2022/10/04 09:28:03;;;;;;;1.13;1.02;;;;;;;;;;6215703;23;20087;-88
2022/10/04 09:30:38;;;;;;;2.53;1.80;;;;;;;;;;6214600;23;20356;-86
2022/10/04 09:33:12;;;;;;;2.85;2.65;;;;;;;;;;6215097;23;20078;-86
2022/10/04 09:35:57;;;;;;;3.03;2.22;;;;;;;;;;6215105;23;20458;-85
2022/10/04 09:38:34;;;;;;;1.85;1.48;;;;;;;;;;6214911;23;20509;-85
2022/10/04 09:41:15;;;;;;;2.47;2.28;;;;;;;;;;6214878;23;20467;-86
2022/10/04 09:43:59;;;;;;;1.90;1.80;;;;;;;;;;6210535;23;20028;-86
2022/10/04 09:46:38;;;;;;;1.17;1.08;;;;;;;;;;6215204;23;20032;-86
2022/10/04 09:49:13;;;;;;;2.38;2.10;;;;;;;;;;6215088;23;20090;-85
2022/10/04 09:52:00;;;;;;;2.13;2.03;;;;;;;;;;6215422;23;20055;-86
2022/10/04 09:54:48;;;;;;;1.80;1.48;;;;;;;;;;6215243;23;20060;-86
2022/10/04 09:57:18;;;;;;;2.50;1.45;;;;;;;;;;6214549;23;20082;-86
2022/10/04 10:00:00;;;;;;;1.52;1.42;;;;;;;;;;6215125;23;20028;-85
2022/10/04 10:02:55;;;;;;;6.93;1.55;;;;;;;;;;6214852;23;20048;-85
2022/10/04 10:05:27;;;;;;;1.70;1.60;;;;;;;;;;6214799;23;20025;-85
2022/10/04 10:08:00;;;;;;;1.45;1.35;;;;;;;;;;6215300;23;20116;-86
2022/10/04 10:13:41;;;;;;;2.58;1.38;;;;;;;;;;6215143;23;20103;-89
2022/10/04 10:16:17;;;;;;;1.85;1.48;;;;;;;;;;6215273;23;20099;-86
2022/10/04 10:18:51;;;;;;;2.08;1.95;;;;;;;;;;6214752;23;20539;-86
2022/10/04 10:21:27;;;;;;;2.60;2.40;;;;;;;;;;6215220;23;20024;-86
2022/10/04 10:24:03;;;;;;;3.45;2.10;;;;;;;;;;6215627;23;20078;-86
2022/10/04 10:26:48;;;;;;;3.15;2.95;;;;;;;;;;6214704;23;20020;-86
2022/10/04 10:29:41;;;;;;;4.38;3.05;;;;;;;;;;6214753;23;20024;-85
2022/10/04 10:32:20;;;;;;;3.30;3.05;;;;;;;;;;6214569;23;20024;-85
2022/10/04 10:34:55;;;;;;;4.35;4.05;;;;;;;;;;6211581;23;20099;-86
2022/10/04 10:37:26;;;;;;;2.40;2.28;;;;;;;;;;6214136;23;20462;-86
2022/10/04 10:40:11;;;;;;;2.42;1.85;;;;;;;;;;6214059;23;20020;-86
2022/10/04 10:42:43;;;;;;;1.50;1.27;;;;;;;;;;6214946;23;20074;-85
2022/10/04 10:45:21;;;;;;;2.40;1.33;;;;;;;;;;6214591;23;20025;-86
2022/10/04 10:47:52;;;;;;;1.73;1.63;;;;;;;;;;6213389;23;20104;-85
2022/10/04 10:50:32;;;;;;;3.22;1.65;;;;;;;;;;6214088;23;20535;-86
2022/10/04 10:53:13;;;;;;;2.22;2.03;;;;;;;;;;6210057;23;20024;-87
2022/10/04 10:56:03;;;;;;;2.15;1.95;;;;;;;;;;6209065;23;20017;-87
2022/10/04 10:58:48;;;;;;;2.55;2.13;;;;;;;;;;6213419;23;20028;-85
2022/10/04 11:01:23;;;;;;;3.95;2.75;;;;;;;;;;6214251;23;20032;-86
2022/10/04 11:04:11;;;;;;;2.25;2.10;;;;;;;;;;6213038;23;20029;-86
2022/10/04 11:06:58;;;;;;;2.65;2.47;;;;;;;;;;6213646;23;20021;-87
2022/10/04 11:09:42;;;;;;;3.92;1.95;;;;;;;;;;6163928;23;20089;-86
2022/10/04 11:12:18;;;;;;;3.80;2.22;;;;;;;;;;6215067;23;20458;-86
2022/10/04 11:15:09;;;;;;;1.95;1.35;;;;;;;;;;6215986;23;20509;-86
2022/10/04 11:17:56;;;;;;;2.70;1.58;;;;;;;;;;6093944;23;20543;-86
2022/10/04 11:20:44;;;;;;;1.75;1.60;;;;;;;;;;6095110;23;20393;-86
2022/10/04 11:23:27;;;;;;;4.57;4.38;;;;;;;;;;6095104;23;20094;-86
2022/10/04 11:25:58;;;;;;;1.88;1.77;;;;;;;;;;6095172;23;20532;-86
2022/10/04 11:28:31;;;;;;;3.28;1.70;;;;;;;;;;6094761;23;20034;-86
2022/10/04 11:31:18;;;;;;;2.17;2.08;;;;;;;;;;6094701;23;20019;-87
2022/10/04 11:33:59;;;;;;;2.53;2.33;;;;;;;;;;6094348;23;20030;-87
2022/10/04 11:36:35;;;;;;;2.10;1.73;;;;;;;;;;6094681;23;20535;-86
2022/10/04 11:39:06;;;;;;;1.65;1.52;;;;;;;;;;6094771;23;20425;-86
2022/10/04 11:41:44;;;;;;;3.17;2.97;;;;;;;;;;6094870;23;20115;-85
2022/10/04 11:44:28;;;;;;;4.97;3.35;;;;;;;;;;6102895;23;20056;-86
2022/10/04 11:46:56;;;;;;;2.05;1.95;;;;;;;;;;6121667;23;20025;-87
2022/10/04 11:49:34;;;;;;;3.28;1.45;;;;;;;;;;6123568;23;20042;-88
2022/10/04 11:52:24;;;;;;;2.47;1.77;;;;;;;;;;6123764;23;20417;-87
2022/10/04 11:55:13;;;;;;;3.72;2.03;;;;;;;;;;6194079;23;20050;-87
2022/10/04 11:57:42;;;;;;;2.08;1.75;;;;;;;;;;6216204;23;20021;-87
2022/10/04 12:00:13;;;;;;;2.97;2.67;;;;;;;;;;6215446;23;20078;-87
2022/10/04 12:02:57;;;;;;;2.63;1.65;;;;;;;;;;6214314;23;20458;-86
2022/10/04 12:05:49;;;;;;;2.65;2.05;;;;;;;;;;6214893;23;20021;-86
2022/10/04 12:08:23;;;;;;;4.18;2.22;;;;;;;;;;6192826;23;20020;-88
2022/10/04 12:11:00;;;;;;;2.60;2.10;;;;;;;;;;6215553;23;20024;-87
2022/10/04 12:13:32;;;;;;;1.77;1.63;;;;;;;;;;6215814;23;20028;-87
2022/10/04 12:16:11;;;;;;;2.83;2.58;;;;;;;;;;6215353;23;20038;-86
2022/10/04 12:18:55;;;;;;;2.03;1.92;;;;;;;;;;6214748;23;20028;-88
2022/10/04 12:21:39;;;;;;;2.67;2.47;;;;;;;;;;6215314;23;20025;-87
2022/10/04 12:24:25;;;;;;;2.63;2.00;;;;;;;;;;6214781;23;20020;-87
2022/10/04 12:27:04;;;;;;;2.70;2.50;;;;;;;;;;6215668;23;20090;-87
2022/10/04 12:29:45;;;;;;;4.75;2.10;;;;;;;;;;6215917;23;20090;-87
2022/10/04 12:32:15;;;;;;;3.22;2.60;;;;;;;;;;6164066;23;20024;-86
2022/10/04 12:34:46;;;;;;;2.05;1.95;;;;;;;;;;6215337;23;20078;-86
2022/10/04 12:37:18;;;;;;;2.95;1.50;;;;;;;;;;6215482;23;20315;-87
2022/10/04 12:39:58;;;;;;;2.85;2.65;;;;;;;;;;6216949;23;20016;-87
2022/10/04 12:42:33;;;;;;;2.42;1.83;;;;;;;;;;6216071;23;20052;-86
2022/10/04 12:45:22;;;;;;;2.97;2.63;;;;;;;;;;6213983;23;20051;-87
2022/10/04 12:48:04;;;;;;;2.35;2.25;;;;;;;;;;6213757;23;20029;-87
2022/10/04 12:50:41;;;;;;;3.00;2.33;;;;;;;;;;6214266;23;20048;-86
2022/10/04 12:53:13;;;;;;;2.60;2.40;;;;;;;;;;6214225;23;20110;-87
2022/10/04 12:55:51;;;;;;;1.63;1.52;;;;;;;;;;6214064;23;20342;-86
2022/10/04 12:58:22;;;;;;;3.30;2.17;;;;;;;;;;6214220;23;20025;-86
2022/10/04 13:00:49;;;;;;;2.45;2.25;;;;;;;;;;6213845;23;20075;-86
2022/10/04 13:03:25;;;;;;;2.92;2.42;;;;;;;;;;6213273;23;20467;-86
2022/10/04 13:05:55;;;;;;;3.13;2.88;;;;;;;;;;6214431;23;20028;-86
2022/10/04 13:08:31;;;;;;;7.63;2.63;;;;;;;;;;6214263;23;20032;-86
2022/10/04 13:11:05;;;;;;;2.90;2.22;;;;;;;;;;6213809;23;20024;-86
2022/10/04 13:13:43;;;;;;;1.92;1.77;;;;;;;;;;6214545;23;20103;-87
2022/10/04 13:16:15;;;;;;;2.85;2.65;;;;;;;;;;6214095;23;20021;-87
2022/10/04 13:18:45;;;;;;;2.50;2.30;;;;;;;;;;6214338;23;20021;-87
2022/10/04 13:21:16;;;;;;;2.20;2.03;;;;;;;;;;6213925;23;20021;-86
2022/10/04 13:23:51;;;;;;;1.77;1.42;;;;;;;;;;6214245;23;20095;-87
2022/10/04 13:26:32;;;;;;;2.90;1.55;;;;;;;;;;6213572;23;20112;-86
2022/10/04 13:29:03;;;;;;;2.88;2.67;;;;;;;;;;6208527;23;20029;-86
2022/10/04 13:31:33;;;;;;;2.05;1.55;;;;;;;;;;6212656;23;20017;-88
2022/10/04 13:33:59;;;;;;;;;;;;;;;;;;6216783;23;20021;-89
2022/10/04 13:36:30;;;;;;;3.45;2.38;;;;;;;;;;6214308;23;19920;-89
2022/10/04 13:39:17;;;;;;;2.97;2.78;;;;;;;;;;6214646;23;20078;-88
2022/10/04 13:41:53;;;;;;;3.88;2.55;;;;;;;;;;6204335;23;20090;-89
2022/10/04 13:44:20;;;;;;;;;;;;;;;;;;6214071;23;20016;-89
2022/10/04 13:46:55;;;;;;;2.50;2.13;;;;;;;;;;6212985;23;19956;-89
2022/10/04 13:49:27;;;;;;;3.90;2.35;;;;;;;;;;6213729;23;20029;-89
2022/10/04 13:57:30;;;;;;;1.67;1.58;;;;;;;;;;6213804;23;20141;-89
2022/10/04 14:00:01;;;;;;;3.60;3.30;;;;;;;;;;6212224;23;20095;-88
2022/10/04 14:02:45;;;;;;;3.75;1.70;;;;;;;;;;6213102;23;20024;-89
2022/10/04 14:05:30;;;;;;;2.97;2.78;;;;;;;;;;6214013;23;20025;-88
2022/10/04 14:08:18;;;;;;;2.95;2.20;;;;;;;;;;6214196;23;20025;-88
2022/10/04 14:11:05;;;;;;;3.25;2.88;;;;;;;;;;6203289;23;20016;-89
2022/10/04 14:13:52;;;;;;;3.22;2.90;;;;;;;;;;6202951;23;20020;-88
2022/10/04 14:16:33;;;;;;;6.03;2.85;;;;;;;;;;6213377;23;20087;-88
2022/10/04 14:19:19;;;;;;;2.53;2.40;;;;;;;;;;6213926;23;20591;-89
2022/10/04 14:21:58;;;;;;;3.30;2.95;;;;;;;;;;6212640;23;20498;-90
2022/10/04 14:24:50;;;;;;;4.63;4.32;;;;;;;;;;6213086;23;20024;-89
2022/10/04 14:27:42;;;;;;;4.55;3.08;;;;;;;;;;6213083;23;20025;-90
2022/10/04 14:30:22;;;;;;;2.97;2.78;;;;;;;;;;6213524;23;20056;-88
2022/10/04 14:33:04;;;;;;;5.57;4.40;;;;;;;;;;6213477;23;20031;-87
2022/10/04 14:35:33;;;;;;;1.88;1.60;;;;;;;;;;6213657;23;20020;-87
2022/10/04 14:38:24;;;;;;;2.30;2.13;;;;;;;;;;6213871;23;20091;-87
2022/10/04 14:41:06;;;;;;;2.97;2.75;;;;;;;;;;6182991;23;20025;-90
2022/10/04 14:43:54;;;;;;;3.70;2.95;;;;;;;;;;6213305;23;20032;-87
2022/10/04 14:46:23;;;;;;;3.22;3.00;;;;;;;;;;6213608;23;20072;-90
2022/10/04 14:48:57;;;;;;;2.85;2.65;;;;;;;;;;6213940;23;20024;-90
2022/10/04 14:51:28;;;;;;;2.92;2.33;;;;;;;;;;6213490;23;20454;-87
2022/10/04 14:54:00;;;;;;;3.53;1.92;;;;;;;;;;6213815;23;20087;-88
2022/10/04 14:56:44;;;;;;;2.95;2.72;;;;;;;;;;6213799;23;20016;-88
2022/10/04 14:59:22;;;;;;;3.45;3.20;;;;;;;;;;6214079;23;20454;-88
2022/10/04 15:02:03;;;;;;;3.63;3.42;;;;;;;;;;6213460;23;20675;-88
2022/10/04 15:04:33;;;;;;;2.70;2.20;;;;;;;;;;6214890;23;20031;-89
2022/10/04 15:07:02;;;;;;;3.30;3.10;;;;;;;;;;6219169;23;20024;-87
2022/10/04 15:09:47;;;;;;;3.90;2.58;;;;;;;;;;6214829;23;20028;-92
2022/10/04 15:12:18;;;;;;;2.20;1.70;;;;;;;;;;6214095;23;20020;-88
2022/10/04 15:17:56;;;;;;;3.20;2.88;;;;;;;;;;5089378;27;20424;-89
2022/10/04 15:20:24;;;;;;;7.40;2.72;;;;;;;;;;5088623;28;20040;-90
2022/10/04 15:22:53;;;;;;;3.15;2.95;;;;;;;;;;5088365;28;20056;-89
2022/10/04 15:25:39;;;;;;;2.63;1.67;;;;;;;;;;5088936;28;20044;-87
2022/10/04 15:28:07;;;;;;;3.13;1.92;;;;;;;;;;5088913;28;20048;-87
2022/10/04 15:30:44;;;;;;;5.35;3.58;;;;;;;;;;5087887;28;20052;-88
2022/10/04 15:33:10;;;;;;;;;;;;;;;;;;5089602;28;20044;-88
2022/10/04 15:35:41;;;;;;;4.45;2.58;;;;;;;;;;5088719;28;19934;-88
2022/10/04 15:38:15;;;;;;;4.35;2.10;;;;;;;;;;5088870;28;20398;-88
2022/10/04 15:40:53;;;;;;;3.03;2.35;;;;;;;;;;5088807;28;20040;-88
2022/10/04 15:43:24;;;;;;;5.55;3.13;;;;;;;;;;5088437;28;20132;-88
2022/10/04 15:46:04;;;;;;;4.55;3.35;;;;;;;;;;5088273;28;20082;-87
2022/10/04 15:48:38;;;;;;;4.30;2.90;;;;;;;;;;5087797;28;20094;-88